sensor_id;sensor_type;location;lat;lon;timestamp;temperature;humidity
44695;DHT22;32845;59.422;17.930;2024-03-23T00:55:55;4.10;99.90
44695;DHT22;32845;59.422;17.930;2024-03-23T01:00:26;4.10;99.90
44695;DHT22;32845;59.422;17.930;2024-03-23T01:04:56;4.00;99.90
44695;DHT22;32845;59.422;17.930;2024-03-23T01:09:27;4.00;99.90
44695;DHT22;32845;59.422;17.930;2024-03-23T01:13:57;4.00;99.90
44695;DHT22;32845;59.422;17.930;2024-03-23T01:18:28;4.00;99.90
44695;DHT22;32845;59.422;17.930;2024-03-23T01:22:59;3.90;99.90
44695;DHT22;32845;59.422;17.930;2024-03-23T01:27:30;3.90;99.90
44695;DHT22;32845;59.422;17.930;2024-03-23T01:32:00;3.80;99.90
44695;DHT22;32845;59.422;17.930;2024-03-23T01:36:31;3.80;99.90
44695;DHT22;32845;59.422;17.930;2024-03-23T01:41:02;3.70;99.90
44695;DHT22;32845;59.422;17.930;2024-03-23T01:45:32;3.70;99.90
44695;DHT22;32845;59.422;17.930;2024-03-23T01:50:03;3.70;99.90
44695;DHT22;32845;59.422;17.930;2024-03-23T01:54:35;3.60;99.90
44695;DHT22;32845;59.422;17.930;2024-03-23T01:59:06;3.60;99.90
44695;DHT22;32845;59.422;17.930;2024-03-23T02:03:37;3.60;99.90
44695;DHT22;32845;59.422;17.930;2024-03-23T02:08:07;3.60;99.90
44695;DHT22;32845;59.422;17.930;2024-03-23T02:12:38;3.50;99.90
44695;DHT22;32845;59.422;17.930;2024-03-23T02:17:09;3.50;99.90
44695;DHT22;32845;59.422;17.930;2024-03-23T02:21:39;3.40;99.90
44695;DHT22;32845;59.422;17.930;2024-03-23T02:26:10;3.40;99.90
44695;DHT22;32845;59.422;17.930;2024-03-23T02:30:41;3.30;99.90
44695;DHT22;32845;59.422;17.930;2024-03-23T02:35:11;3.30;99.90
44695;DHT22;32845;59.422;17.930;2024-03-23T02:39:42;3.20;99.90
44695;DHT22;32845;59.422;17.930;2024-03-23T02:44:13;3.20;99.90
44695;DHT22;32845;59.422;17.930;2024-03-23T02:48:44;3.20;99.90
44695;DHT22;32845;59.422;17.930;2024-03-23T02:53:14;3.20;99.90
44695;DHT22;32845;59.422;17.930;2024-03-23T02:57:45;3.10;99.90
44695;DHT22;32845;59.422;17.930;2024-03-23T03:02:16;3.10;99.90
44695;DHT22;32845;59.422;17.930;2024-03-23T03:06:47;3.10;99.90
44695;DHT22;32845;59.422;17.930;2024-03-23T03:11:18;3.20;99.90
44695;DHT22;32845;59.422;17.930;2024-03-23T03:15:49;3.10;99.90
44695;DHT22;32845;59.422;17.930;2024-03-23T03:20:19;3.10;99.90
44695;DHT22;32845;59.422;17.930;2024-03-23T03:24:50;3.10;99.90
44695;DHT22;32845;59.422;17.930;2024-03-23T03:29:20;3.00;99.90
44695;DHT22;32845;59.422;17.930;2024-03-23T03:33:51;3.00;99.90
44695;DHT22;32845;59.422;17.930;2024-03-23T03:38:22;2.90;99.90
44695;DHT22;32845;59.422;17.930;2024-03-23T03:42:52;2.90;99.90
44695;DHT22;32845;59.422;17.930;2024-03-23T03:47:23;2.90;99.90
44695;DHT22;32845;59.422;17.930;2024-03-23T03:51:53;2.80;99.90
44695;DHT22;32845;59.422;17.930;2024-03-23T03:56:24;2.90;99.90
44695;DHT22;32845;59.422;17.930;2024-03-23T04:00:54;2.80;99.90
44695;DHT22;32845;59.422;17.930;2024-03-23T04:05:25;2.80;99.90
44695;DHT22;32845;59.422;17.930;2024-03-23T04:09:56;2.80;99.90
44695;DHT22;32845;59.422;17.930;2024-03-23T04:14:26;2.80;99.90
44695;DHT22;32845;59.422;17.930;2024-03-23T04:18:57;2.70;99.90
44695;DHT22;32845;59.422;17.930;2024-03-23T04:23:27;2.70;99.90
44695;DHT22;32845;59.422;17.930;2024-03-23T04:27:58;2.70;99.90
44695;DHT22;32845;59.422;17.930;2024-03-23T04:32:28;2.70;99.90
44695;DHT22;32845;59.422;17.930;2024-03-23T04:37:04;2.70;99.90
44695;DHT22;32845;59.422;17.930;2024-03-23T04:41:35;2.70;99.90
44695;DHT22;32845;59.422;17.930;2024-03-23T04:46:06;2.60;99.90
44695;DHT22;32845;59.422;17.930;2024-03-23T04:50:36;2.60;99.90
44695;DHT22;32845;59.422;17.930;2024-03-23T04:55:07;2.60;99.90
44695;DHT22;32845;59.422;17.930;2024-03-23T04:59:37;2.60;99.90
44695;DHT22;32845;59.422;17.930;2024-03-23T05:04:09;2.60;99.90
44695;DHT22;32845;59.422;17.930;2024-03-23T05:08:39;2.50;99.90
44695;DHT22;32845;59.422;17.930;2024-03-23T05:13:10;2.50;99.90
44695;DHT22;32845;59.422;17.930;2024-03-23T05:17:41;2.50;99.90
44695;DHT22;32845;59.422;17.930;2024-03-23T05:22:11;2.50;99.90
44695;DHT22;32845;59.422;17.930;2024-03-23T05:26:42;2.50;99.90
44695;DHT22;32845;59.422;17.930;2024-03-23T05:31:22;2.50;99.90
44695;DHT22;32845;59.422;17.930;2024-03-23T05:36:00;2.50;99.90
44695;DHT22;32845;59.422;17.930;2024-03-23T05:40:30;2.50;99.90
44695;DHT22;32845;59.422;17.930;2024-03-23T05:45:02;2.50;99.90
44695;DHT22;32845;59.422;17.930;2024-03-23T05:49:33;2.60;99.90
44695;DHT22;32845;59.422;17.930;2024-03-23T05:54:03;2.60;99.90
44695;DHT22;32845;59.422;17.930;2024-03-23T05:58:34;2.70;99.90
44695;DHT22;32845;59.422;17.930;2024-03-23T06:03:04;2.70;99.90
44695;DHT22;32845;59.422;17.930;2024-03-23T06:07:35;2.70;99.90
44695;DHT22;32845;59.422;17.930;2024-03-23T06:12:06;2.80;99.90
44695;DHT22;32845;59.422;17.930;2024-03-23T06:16:36;2.80;99.90
44695;DHT22;32845;59.422;17.930;2024-03-23T06:21:13;2.90;99.90
44695;DHT22;32845;59.422;17.930;2024-03-23T06:25:44;2.90;99.90
44695;DHT22;32845;59.422;17.930;2024-03-23T06:30:15;3.00;99.90
44695;DHT22;32845;59.422;17.930;2024-03-23T06:34:51;3.10;99.90
44695;DHT22;32845;59.422;17.930;2024-03-23T06:39:21;3.10;99.90
44695;DHT22;32845;59.422;17.930;2024-03-23T06:43:52;3.20;99.90
44695;DHT22;32845;59.422;17.930;2024-03-23T06:48:23;3.30;99.90
44695;DHT22;32845;59.422;17.930;2024-03-23T06:52:53;3.40;99.90
44695;DHT22;32845;59.422;17.930;2024-03-23T06:57:24;3.60;99.90
44695;DHT22;32845;59.422;17.930;2024-03-23T07:01:54;3.60;99.90
44695;DHT22;32845;59.422;17.930;2024-03-23T07:06:25;3.70;99.90
44695;DHT22;32845;59.422;17.930;2024-03-23T07:10:55;3.80;99.90
44695;DHT22;32845;59.422;17.930;2024-03-23T07:15:26;3.90;99.90
44695;DHT22;32845;59.422;17.930;2024-03-23T07:19:56;4.00;99.90
44695;DHT22;32845;59.422;17.930;2024-03-23T07:24:38;4.10;99.90
44695;DHT22;32845;59.422;17.930;2024-03-23T07:29:09;4.20;99.90
44695;DHT22;32845;59.422;17.930;2024-03-23T07:33:48;4.30;99.90
44695;DHT22;32845;59.422;17.930;2024-03-23T07:38:19;4.40;99.90
44695;DHT22;32845;59.422;17.930;2024-03-23T07:42:49;4.50;99.90
44695;DHT22;32845;59.422;17.930;2024-03-23T07:47:20;4.60;99.90
44695;DHT22;32845;59.422;17.930;2024-03-23T07:51:50;4.70;99.90
44695;DHT22;32845;59.422;17.930;2024-03-23T07:56:21;4.80;99.90
44695;DHT22;32845;59.422;17.930;2024-03-23T08:00:56;4.90;99.90
44695;DHT22;32845;59.422;17.930;2024-03-23T08:05:27;5.00;99.90
44695;DHT22;32845;59.422;17.930;2024-03-23T08:09:57;5.10;99.90
44695;DHT22;32845;59.422;17.930;2024-03-23T08:14:29;5.20;99.90
44695;DHT22;32845;59.422;17.930;2024-03-23T08:19:00;5.30;99.90
44695;DHT22;32845;59.422;17.930;2024-03-23T08:23:32;5.40;99.90
44695;DHT22;32845;59.422;17.930;2024-03-23T08:28:04;5.50;99.90
44695;DHT22;32845;59.422;17.930;2024-03-23T08:32:35;5.60;99.90
44695;DHT22;32845;59.422;17.930;2024-03-23T08:37:05;5.70;99.90
44695;DHT22;32845;59.422;17.930;2024-03-23T08:41:36;5.70;99.90
44695;DHT22;32845;59.422;17.930;2024-03-23T08:46:14;5.70;99.90
44695;DHT22;32845;59.422;17.930;2024-03-23T08:50:45;5.70;99.90
44695;DHT22;32845;59.422;17.930;2024-03-23T08:55:16;5.80;99.90
44695;DHT22;32845;59.422;17.930;2024-03-23T08:59:46;5.80;99.90
44695;DHT22;32845;59.422;17.930;2024-03-23T09:04:17;5.90;99.90
44695;DHT22;32845;59.422;17.930;2024-03-23T09:08:49;5.90;99.90
44695;DHT22;32845;59.422;17.930;2024-03-23T09:13:20;6.00;99.90
44695;DHT22;32845;59.422;17.930;2024-03-23T09:18:21;6.00;99.90
44695;DHT22;32845;59.422;17.930;2024-03-23T09:22:52;6.10;99.90
44695;DHT22;32845;59.422;17.930;2024-03-23T09:27:23;6.20;99.90
44695;DHT22;32845;59.422;17.930;2024-03-23T09:31:53;6.30;99.90
44695;DHT22;32845;59.422;17.930;2024-03-23T09:36:24;6.40;99.90
44695;DHT22;32845;59.422;17.930;2024-03-23T09:40:57;6.50;99.90
44695;DHT22;32845;59.422;17.930;2024-03-23T09:45:28;6.60;99.90
44695;DHT22;32845;59.422;17.930;2024-03-23T09:50:00;6.70;99.90
44695;DHT22;32845;59.422;17.930;2024-03-23T09:54:31;6.80;99.90
44695;DHT22;32845;59.422;17.930;2024-03-23T09:59:03;6.90;99.90
44695;DHT22;32845;59.422;17.930;2024-03-23T10:03:45;7.00;99.90
44695;DHT22;32845;59.422;17.930;2024-03-23T10:12:49;7.10;99.90
44695;DHT22;32845;59.422;17.930;2024-03-23T10:17:23;7.20;99.90
44695;DHT22;32845;59.422;17.930;2024-03-23T10:21:56;7.30;99.90
44695;DHT22;32845;59.422;17.930;2024-03-23T10:26:27;7.40;99.90
44695;DHT22;32845;59.422;17.930;2024-03-23T10:30:59;7.50;99.90
44695;DHT22;32845;59.422;17.930;2024-03-23T10:35:41;7.70;99.90
44695;DHT22;32845;59.422;17.930;2024-03-23T10:40:12;8.10;99.90
44695;DHT22;32845;59.422;17.930;2024-03-23T10:44:43;8.20;99.90
44695;DHT22;32845;59.422;17.930;2024-03-23T10:49:14;8.30;99.90
44695;DHT22;32845;59.422;17.930;2024-03-23T10:53:45;8.60;99.90
44695;DHT22;32845;59.422;17.930;2024-03-23T10:58:18;9.00;99.90
44695;DHT22;32845;59.422;17.930;2024-03-23T11:02:49;9.40;99.90
44695;DHT22;32845;59.422;17.930;2024-03-23T11:11:56;9.70;99.90
44695;DHT22;32845;59.422;17.930;2024-03-23T11:16:28;9.50;99.90
44695;DHT22;32845;59.422;17.930;2024-03-23T11:21:07;9.30;99.90
44695;DHT22;32845;59.422;17.930;2024-03-23T11:25:38;9.20;99.90
44695;DHT22;32845;59.422;17.930;2024-03-23T11:30:16;9.20;99.90
44695;DHT22;32845;59.422;17.930;2024-03-23T11:34:47;9.80;99.90
44695;DHT22;32845;59.422;17.930;2024-03-23T11:39:19;10.50;99.90
44695;DHT22;32845;59.422;17.930;2024-03-23T11:43:50;10.30;99.90
44695;DHT22;32845;59.422;17.930;2024-03-23T11:48:22;9.90;99.90
44695;DHT22;32845;59.422;17.930;2024-03-23T11:52:53;9.80;99.90
44695;DHT22;32845;59.422;17.930;2024-03-23T11:57:36;9.70;99.90
44695;DHT22;32845;59.422;17.930;2024-03-23T12:02:10;9.50;99.90
44695;DHT22;32845;59.422;17.930;2024-03-23T12:06:41;9.50;99.90
44695;DHT22;32845;59.422;17.930;2024-03-23T12:11:13;9.70;99.90
44695;DHT22;32845;59.422;17.930;2024-03-23T12:15:46;10.00;99.90
44695;DHT22;32845;59.422;17.930;2024-03-23T12:20:17;10.20;99.90
44695;DHT22;32845;59.422;17.930;2024-03-23T12:24:48;10.90;99.90
44695;DHT22;32845;59.422;17.930;2024-03-23T12:29:19;11.20;99.90
44695;DHT22;32845;59.422;17.930;2024-03-23T12:33:50;11.30;99.90
44695;DHT22;32845;59.422;17.930;2024-03-23T12:38:21;11.40;99.90
44695;DHT22;32845;59.422;17.930;2024-03-23T12:42:52;11.70;99.90
44695;DHT22;32845;59.422;17.930;2024-03-23T12:47:22;12.10;99.90
44695;DHT22;32845;59.422;17.930;2024-03-23T12:51:54;12.60;99.90
44695;DHT22;32845;59.422;17.930;2024-03-23T12:56:28;13.20;99.90
44695;DHT22;32845;59.422;17.930;2024-03-23T13:00:59;13.90;99.90
44695;DHT22;32845;59.422;17.930;2024-03-23T13:05:29;14.20;99.90
44695;DHT22;32845;59.422;17.930;2024-03-23T13:10:00;14.60;99.90
44695;DHT22;32845;59.422;17.930;2024-03-23T13:14:32;14.60;99.90
44695;DHT22;32845;59.422;17.930;2024-03-23T13:19:03;14.30;99.20
44695;DHT22;32845;59.422;17.930;2024-03-23T13:23:33;13.90;98.00
44695;DHT22;32845;59.422;17.930;2024-03-23T13:28:06;13.40;99.00
44695;DHT22;32845;59.422;17.930;2024-03-23T13:32:36;13.40;98.90
44695;DHT22;32845;59.422;17.930;2024-03-23T13:37:08;13.40;98.20
44695;DHT22;32845;59.422;17.930;2024-03-23T13:41:41;13.30;98.30
44695;DHT22;32845;59.422;17.930;2024-03-23T13:46:12;13.40;97.90
44695;DHT22;32845;59.422;17.930;2024-03-23T13:50:42;13.30;99.90
44695;DHT22;32845;59.422;17.930;2024-03-23T13:55:13;13.10;98.80
44695;DHT22;32845;59.422;17.930;2024-03-23T13:59:45;12.80;99.30
44695;DHT22;32845;59.422;17.930;2024-03-23T14:04:16;12.70;99.10
44695;DHT22;32845;59.422;17.930;2024-03-23T14:08:49;12.50;99.90
44695;DHT22;32845;59.422;17.930;2024-03-23T14:13:20;12.30;99.90
44695;DHT22;32845;59.422;17.930;2024-03-23T14:17:50;12.00;99.90
44695;DHT22;32845;59.422;17.930;2024-03-23T14:22:21;11.60;99.90
44695;DHT22;32845;59.422;17.930;2024-03-23T14:26:53;11.10;99.90
44695;DHT22;32845;59.422;17.930;2024-03-23T14:31:23;10.60;99.90
44695;DHT22;32845;59.422;17.930;2024-03-23T14:35:55;10.50;99.90
44695;DHT22;32845;59.422;17.930;2024-03-23T14:40:27;10.60;99.90
44695;DHT22;32845;59.422;17.930;2024-03-23T14:44:58;10.60;99.90
44695;DHT22;32845;59.422;17.930;2024-03-23T14:49:29;10.50;99.90
44695;DHT22;32845;59.422;17.930;2024-03-23T14:53:59;10.50;99.90
44695;DHT22;32845;59.422;17.930;2024-03-23T14:58:30;10.40;99.90
44695;DHT22;32845;59.422;17.930;2024-03-23T15:03:01;10.30;99.90
44695;DHT22;32845;59.422;17.930;2024-03-23T15:07:31;10.20;99.90
44695;DHT22;32845;59.422;17.930;2024-03-23T15:12:02;10.20;99.90
44695;DHT22;32845;59.422;17.930;2024-03-23T15:16:33;10.10;99.90
44695;DHT22;32845;59.422;17.930;2024-03-23T15:21:04;10.00;99.90
44695;DHT22;32845;59.422;17.930;2024-03-23T15:25:40;9.80;99.90
44695;DHT22;32845;59.422;17.930;2024-03-23T15:30:11;9.70;99.90
44695;DHT22;32845;59.422;17.930;2024-03-23T15:34:41;9.60;99.90
44695;DHT22;32845;59.422;17.930;2024-03-23T15:39:12;9.50;99.90
44695;DHT22;32845;59.422;17.930;2024-03-23T15:43:44;9.50;99.90
44695;DHT22;32845;59.422;17.930;2024-03-23T15:48:15;9.40;99.90
44695;DHT22;32845;59.422;17.930;2024-03-23T15:52:45;9.10;99.90
44695;DHT22;32845;59.422;17.930;2024-03-23T15:57:16;8.90;99.90
44695;DHT22;32845;59.422;17.930;2024-03-23T16:01:46;8.70;99.90
44695;DHT22;32845;59.422;17.930;2024-03-23T16:06:18;8.60;99.90
44695;DHT22;32845;59.422;17.930;2024-03-23T16:10:48;8.40;99.90
44695;DHT22;32845;59.422;17.930;2024-03-23T16:15:19;8.30;99.90
44695;DHT22;32845;59.422;17.930;2024-03-23T16:19:50;8.20;99.90
44695;DHT22;32845;59.422;17.930;2024-03-23T16:24:21;8.10;99.90
44695;DHT22;32845;59.422;17.930;2024-03-23T16:28:51;8.00;99.90
44695;DHT22;32845;59.422;17.930;2024-03-23T16:33:22;7.90;99.90
44695;DHT22;32845;59.422;17.930;2024-03-23T16:37:58;7.80;99.90
44695;DHT22;32845;59.422;17.930;2024-03-23T16:42:29;7.80;99.90
44695;DHT22;32845;59.422;17.930;2024-03-23T16:47:00;7.80;99.90
44695;DHT22;32845;59.422;17.930;2024-03-23T16:51:30;7.70;99.90
44695;DHT22;32845;59.422;17.930;2024-03-23T16:56:08;7.60;99.90
44695;DHT22;32845;59.422;17.930;2024-03-23T17:00:38;7.50;99.90
44695;DHT22;32845;59.422;17.930;2024-03-23T17:05:09;7.40;99.90
44695;DHT22;32845;59.422;17.930;2024-03-23T17:09:46;7.30;99.90
44695;DHT22;32845;59.422;17.930;2024-03-23T17:14:17;7.10;99.90
44695;DHT22;32845;59.422;17.930;2024-03-23T17:18:48;7.10;99.90
44695;DHT22;32845;59.422;17.930;2024-03-23T17:23:28;6.90;99.90
44695;DHT22;32845;59.422;17.930;2024-03-23T17:27:58;6.80;99.90
44695;DHT22;32845;59.422;17.930;2024-03-23T17:32:29;6.70;99.90
44695;DHT22;32845;59.422;17.930;2024-03-23T17:37:00;6.50;99.90
44695;DHT22;32845;59.422;17.930;2024-03-23T17:41:31;6.30;99.90
44695;DHT22;32845;59.422;17.930;2024-03-23T17:46:01;6.20;99.90
44695;DHT22;32845;59.422;17.930;2024-03-23T17:50:32;6.10;99.90
44695;DHT22;32845;59.422;17.930;2024-03-23T17:55:03;5.90;99.90
44695;DHT22;32845;59.422;17.930;2024-03-23T17:59:34;5.70;99.90
44695;DHT22;32845;59.422;17.930;2024-03-23T18:04:04;5.50;99.90
44695;DHT22;32845;59.422;17.930;2024-03-23T18:08:35;5.40;99.90
44695;DHT22;32845;59.422;17.930;2024-03-23T18:13:06;5.30;99.90
44695;DHT22;32845;59.422;17.930;2024-03-23T18:17:36;5.20;99.90
44695;DHT22;32845;59.422;17.930;2024-03-23T18:22:07;5.20;99.90
44695;DHT22;32845;59.422;17.930;2024-03-23T18:26:38;5.00;99.90
44695;DHT22;32845;59.422;17.930;2024-03-23T18:31:08;4.90;99.90
44695;DHT22;32845;59.422;17.930;2024-03-23T18:35:39;4.80;99.90
44695;DHT22;32845;59.422;17.930;2024-03-23T18:40:10;4.70;99.90
44695;DHT22;32845;59.422;17.930;2024-03-23T18:44:40;4.60;99.90
44695;DHT22;32845;59.422;17.930;2024-03-23T18:49:11;4.50;99.90
44695;DHT22;32845;59.422;17.930;2024-03-23T18:53:42;4.60;99.90
44695;DHT22;32845;59.422;17.930;2024-03-23T18:58:12;4.60;99.90
44695;DHT22;32845;59.422;17.930;2024-03-23T19:02:43;4.70;99.90
44695;DHT22;32845;59.422;17.930;2024-03-23T19:07:14;4.70;99.90
44695;DHT22;32845;59.422;17.930;2024-03-23T19:11:44;4.70;99.90
44695;DHT22;32845;59.422;17.930;2024-03-23T19:16:15;4.70;99.90
44695;DHT22;32845;59.422;17.930;2024-03-23T19:20:53;4.70;99.90
44695;DHT22;32845;59.422;17.930;2024-03-23T19:25:24;4.70;99.90
44695;DHT22;32845;59.422;17.930;2024-03-23T19:29:54;4.60;99.90
44695;DHT22;32845;59.422;17.930;2024-03-23T19:34:27;4.50;99.90
44695;DHT22;32845;59.422;17.930;2024-03-23T19:38:57;4.40;99.90
44695;DHT22;32845;59.422;17.930;2024-03-23T19:43:28;4.30;99.90
44695;DHT22;32845;59.422;17.930;2024-03-23T19:48:00;4.30;99.90
44695;DHT22;32845;59.422;17.930;2024-03-23T19:52:30;4.30;99.90
44695;DHT22;32845;59.422;17.930;2024-03-23T19:57:01;4.30;99.90
44695;DHT22;32845;59.422;17.930;2024-03-23T20:01:32;4.30;99.90
44695;DHT22;32845;59.422;17.930;2024-03-23T20:06:02;4.20;99.90
44695;DHT22;32845;59.422;17.930;2024-03-23T20:10:33;4.10;99.90
44695;DHT22;32845;59.422;17.930;2024-03-23T20:15:04;4.00;99.90
44695;DHT22;32845;59.422;17.930;2024-03-23T20:19:35;3.90;99.90
44695;DHT22;32845;59.422;17.930;2024-03-23T20:24:06;3.70;99.90
44695;DHT22;32845;59.422;17.930;2024-03-23T20:28:36;3.60;99.90
44695;DHT22;32845;59.422;17.930;2024-03-23T20:33:07;3.50;99.90
44695;DHT22;32845;59.422;17.930;2024-03-23T20:37:39;3.50;99.90
44695;DHT22;32845;59.422;17.930;2024-03-23T20:42:09;3.50;99.90
44695;DHT22;32845;59.422;17.930;2024-03-23T20:46:46;3.40;99.90
44695;DHT22;32845;59.422;17.930;2024-03-23T20:51:17;3.40;99.90
44695;DHT22;32845;59.422;17.930;2024-03-23T20:55:55;3.40;99.90
44695;DHT22;32845;59.422;17.930;2024-03-23T21:00:26;3.30;99.90
44695;DHT22;32845;59.422;17.930;2024-03-23T21:04:56;3.20;99.90
44695;DHT22;32845;59.422;17.930;2024-03-23T21:09:27;3.20;99.90
44695;DHT22;32845;59.422;17.930;2024-03-23T21:13:57;3.20;99.90
44695;DHT22;32845;59.422;17.930;2024-03-23T21:18:31;3.20;99.90
44695;DHT22;32845;59.422;17.930;2024-03-23T21:23:02;3.20;99.90
44695;DHT22;32845;59.422;17.930;2024-03-23T21:27:33;3.20;99.90
44695;DHT22;32845;59.422;17.930;2024-03-23T21:32:03;3.10;99.90
44695;DHT22;32845;59.422;17.930;2024-03-23T21:36:34;3.00;99.90
44695;DHT22;32845;59.422;17.930;2024-03-23T21:41:05;2.90;99.90
44695;DHT22;32845;59.422;17.930;2024-03-23T21:45:35;2.90;99.90
44695;DHT22;32845;59.422;17.930;2024-03-23T21:50:06;2.90;99.90
44695;DHT22;32845;59.422;17.930;2024-03-23T21:54:37;2.90;99.90
44695;DHT22;32845;59.422;17.930;2024-03-23T21:59:07;2.90;99.90
44695;DHT22;32845;59.422;17.930;2024-03-23T22:03:40;2.90;99.90
44695;DHT22;32845;59.422;17.930;2024-03-23T22:08:10;2.80;99.90
44695;DHT22;32845;59.422;17.930;2024-03-23T22:12:41;2.90;99.90
44695;DHT22;32845;59.422;17.930;2024-03-23T22:17:12;2.90;99.90
44695;DHT22;32845;59.422;17.930;2024-03-23T22:21:43;2.90;99.90
44695;DHT22;32845;59.422;17.930;2024-03-23T22:26:13;3.00;99.90
44695;DHT22;32845;59.422;17.930;2024-03-23T22:31:01;3.10;99.90
44695;DHT22;32845;59.422;17.930;2024-03-23T22:35:32;3.10;99.90
44695;DHT22;32845;59.422;17.930;2024-03-23T22:40:03;3.20;99.90
44695;DHT22;32845;59.422;17.930;2024-03-23T22:44:35;3.20;99.90
44695;DHT22;32845;59.422;17.930;2024-03-23T22:49:05;3.30;99.90
44695;DHT22;32845;59.422;17.930;2024-03-23T22:53:36;3.40;99.90
44695;DHT22;32845;59.422;17.930;2024-03-23T22:58:07;3.40;99.90
44695;DHT22;32845;59.422;17.930;2024-03-23T23:02:37;3.40;99.90
44695;DHT22;32845;59.422;17.930;2024-03-23T23:07:08;3.40;99.90
44695;DHT22;32845;59.422;17.930;2024-03-23T23:11:38;3.40;99.90
44695;DHT22;32845;59.422;17.930;2024-03-23T23:16:09;3.40;99.90
44695;DHT22;32845;59.422;17.930;2024-03-23T23:20:40;3.40;99.90
44695;DHT22;32845;59.422;17.930;2024-03-23T23:25:12;3.40;99.90
44695;DHT22;32845;59.422;17.930;2024-03-23T23:29:43;3.30;99.90
44695;DHT22;32845;59.422;17.930;2024-03-23T23:34:13;3.30;99.90
44695;DHT22;32845;59.422;17.930;2024-03-23T23:38:48;3.30;99.90
44695;DHT22;32845;59.422;17.930;2024-03-23T23:43:22;3.30;99.90
44695;DHT22;32845;59.422;17.930;2024-03-23T23:47:52;3.30;99.90
44695;DHT22;32845;59.422;17.930;2024-03-23T23:52:23;3.30;99.90
44695;DHT22;32845;59.422;17.930;2024-03-23T23:56:53;3.30;99.90
